Scroll down
FLIGHT INFORMATION
Pegasus Airlines

PGT1282

At Arrival Gate

ESSA
 LTBA
DATE: 2020-08-14
GATE: 
GATE DEPARTURE: 13:41
TAKEOFF: 14:00
DATE: 2020-08-14
GATE:  -
LANDING: 16:50
GATE ARRIVAL: 17:01
FLIGHT DATA
Crew: 
Speed: 
466 kts
Altitude: 
37,011 ft
Stage Length: 
1,192.9 nm
Block Time: 
3.3 hrs
Flight Time: 
2.8 hrs
Fuel Used: 
17,130 lb
Cleared Route: ESSA BABAP NEKLA RASEL LITPA ARLIT VAKAL ODUNI TUMKI GRD POTAP IRFIL GINSO TADUN ORTUL PEMIR BUKOV BCU TULNU PELES EVIKA PILAT CND VAKIS DINRO MATEL RIXEN TETSA LTBA
TRACK DATA
50,000 ft 1,000 kts
AIRCRAFT INFO AND CUMULATIVE STATS
Aircraft Type: 
B738BW
Registration: 
SELCAL: 
BPLR
MSN/LN: 
40010 / 4807
Operator: 
Total Flights: 
1
Total Block Time: 
3.2 hrs
Total Flight Time: 
2.8 hrs
Total Fuel Time: 
17,130 lb
DATALINK LOG | Newest first | Current as of: 2020-12-03 01:17:51
LABEL SEQUENCE CONTENT Dn/Up
QD394517:01 7.3▼ Dn
QC283616:50▼ Dn
GA0613ADVANCED GATE ASSIGNMENTS NOT YET AVAILABLE AT THIS AIRPORT▲ Up
GR0613LTBA 16:50 HI-VAL NO DIPL/VIP NO▼ Dn
2U2822LTBA 141350Z 03015KT CAVOK 28/13 Q1014 NOSIG RMK RWY17L 05014KT 020V080 RWY05 04015KT 010V080 RWY23 04014KT 010V070▲ Up
2S2821LTBA▼ Dn
UM202464CLEARED TO FL 370▲ Up
DM62454REQUEST FL 370 DUE TO A/C PERF▼ Dn
QB030314:00▼ Dn
QA444713:41 24.5▼ Dn
A32942CLEARED TO LTBA VIA BABA3G BABAP P156 RASEL Y40 ARLIT N616 DINRO L620 MATEL N616 RIXEN UG1 TETSA. SQUAWK .▲ Up
B32932ESSA LTBA PGT1282 PGT A ▼ Dn
2U2528ESSA 141320Z 24010KT CAVOK 25/11 Q1013 NOSIG▲ Up
2S2528ESSA▼ Dn
Q02427[LINK ACK]▲ Up
Q02427[LINK TEST]▼ Dn


AIRCRAFT HISTORY
FLIGHT DATE FLIGHT NO. ORIGIN DESTINATION CLEARED ROUTE BLOCK TIME FLIGHT TIME FUEL USED PILOT
2020-08-14PGT1282ESSA LTBA ESSA BABAP NEKLA RASEL LITPA ARLIT VAKAL ODUNI TUMKI GRD POTAP IRFIL GINSO TADUN ORTUL PEMIR BUKOV BCU TULNU PELES EVIKA PILAT CND VAKIS DINRO MATEL RIXEN TETSA LTBA3.3 hrs2.8 hrs17,130 lbBig Swede